< < Back
Terminal Aerodrome Forecast


Current Version              Previous Versions:   1  2  3  4  5  6  7  8  9  

Terminal Aerodrome Forecast

658
FTUS42 KFFC 131125
TAFCSG
TAF
KCSG 131125Z 1312/1412 35008KT P6SM SKC
     FM140000 01004KT P6SM SKC
     FM141000 07004KT P6SM SCT080=

Latest METAR

812
SAUS70 KWBC 140900 RRX
MTRCSG
METAR KCSG 140951Z AUTO 09003KT 10SM CLR M01/M12 A3033 RMK AO2 SLP273
T10111122


USA.gov is the U.S. government's official web portal to all federal, state and local government web resources and services.